Time;durP1;ratioP1;P1;durP2;ratioP2;P2;SDS_P1;SDS_P2;PMS_P1;PMS_P2;Temp;Humidity;BMP_temperature;BMP_pressure;BME280_temperature;BME280_humidity;BME280_pressure;Samples;Min_cycle;Max_cycle;Signal;HPM_P1;HPM_P2
2020/12/20 09:55:09;;;;;;;20.93;7.50;;;18.80;46.80;;;;;;4244611;27;20350;-62
2020/12/20 09:57:32;;;;;;;16.25;7.13;;;18.70;47.80;;;;;;4228474;28;20065;-69
2020/12/20 09:59:52;;;;;;;19.52;7.25;;;18.70;48.70;;;;;;4227400;28;20050;-66
2020/12/20 10:02:12;;;;;;;16.35;6.85;;;18.60;45.50;;;;;;4227377;28;20109;-66
2020/12/20 10:04:35;;;;;;;29.35;7.88;;;18.40;45.70;;;;;;4228479;28;20058;-64
2020/12/20 10:06:58;;;;;;;15.35;7.28;;;18.20;46.30;;;;;;4225283;28;20051;-64
2020/12/20 10:09:18;;;;;;;16.02;6.57;;;18.10;45.70;;;;;;4226577;28;20066;-62
2020/12/20 10:11:43;;;;;;;15.30;6.18;;;18.20;46.50;;;;;;4227175;28;20094;-61
2020/12/20 10:14:05;;;;;;;10.68;6.05;;;18.30;46.90;;;;;;4225901;28;20433;-62
2020/12/20 10:16:28;;;;;;;11.68;5.60;;;18.50;47.10;;;;;;4227640;28;20054;-62
2020/12/20 10:18:48;;;;;;;10.32;6.00;;;18.60;47.30;;;;;;4223594;28;20108;-62
2020/12/20 10:21:14;;;;;;;13.48;5.03;;;18.60;47.40;;;;;;4225168;28;20055;-62
2020/12/20 10:23:34;;;;;;;11.77;4.72;;;18.70;47.70;;;;;;4226387;28;20429;-63
2020/12/20 10:25:57;;;;;;;9.10;4.63;;;18.80;47.70;;;;;;4227352;28;20086;-63
2020/12/20 10:28:18;;;;;;;8.23;4.27;;;18.80;47.60;;;;;;4225402;28;20078;-63
2020/12/20 10:30:38;;;;;;;6.15;3.35;;;18.90;47.90;;;;;;4225594;28;20285;-63
2020/12/20 10:33:02;;;;;;;7.60;4.47;;;18.90;48.10;;;;;;4226487;28;20054;-63
2020/12/20 10:35:24;;;;;;;5.63;3.70;;;18.90;48.10;;;;;;4224724;28;20087;-63
2020/12/20 10:37:45;;;;;;;6.20;3.50;;;18.90;47.90;;;;;;4226785;28;20544;-61
2020/12/20 10:40:05;;;;;;;5.32;4.00;;;18.90;48.20;;;;;;4226092;28;20102;-63
2020/12/20 10:42:28;;;;;;;5.78;3.53;;;19.00;48.40;;;;;;4226808;28;20109;-63
2020/12/20 10:44:51;;;;;;;5.97;4.07;;;19.00;48.20;;;;;;4226838;28;20071;-63
2020/12/20 10:47:14;;;;;;;4.88;3.38;;;19.00;48.00;;;;;;4211646;28;20130;-62
2020/12/20 10:49:37;;;;;;;4.15;3.58;;;19.00;47.90;;;;;;4207615;28;20070;-62
2020/12/20 10:51:57;;;;;;;5.05;3.70;;;19.00;47.90;;;;;;4206920;28;20059;-62
2020/12/20 10:54:17;;;;;;;7.65;3.75;;;19.00;48.00;;;;;;4207985;28;20117;-61
2020/12/20 10:56:40;;;;;;;8.25;3.35;;;19.10;48.50;;;;;;4207428;28;20055;-62
2020/12/20 10:59:03;;;;;;;6.75;3.40;;;19.10;48.50;;;;;;4207861;28;20051;-64
2020/12/20 11:01:27;;;;;;;7.55;4.00;;;19.20;48.50;;;;;;4208890;28;20557;-65
2020/12/20 11:03:51;;;;;;;12.35;4.28;;;19.20;48.70;;;;;;4207697;28;20051;-64
2020/12/20 11:06:16;;;;;;;;;;;19.20;49.20;;;;;;4212270;28;20133;-65
2020/12/20 11:08:36;;;;;;;6.43;3.97;;;19.20;48.30;;;;;;4197038;28;19927;-65
2020/12/20 11:10:56;;;;;;;7.85;4.03;;;19.20;48.50;;;;;;4195872;28;20113;-65
2020/12/20 11:13:16;;;;;;;6.00;3.35;;;19.20;48.30;;;;;;4199053;28;20137;-65
2020/12/20 11:15:37;;;;;;;6.47;3.67;;;19.30;48.30;;;;;;4198600;28;20052;-65
2020/12/20 11:17:58;;;;;;;5.80;3.33;;;19.30;48.80;;;;;;4197868;28;20123;-65
2020/12/20 11:20:23;;;;;;;5.28;3.35;;;19.30;48.30;;;;;;4197817;28;20949;-65
2020/12/20 11:22:43;;;;;;;5.72;3.22;;;19.30;48.50;;;;;;4198906;28;20056;-65
2020/12/20 11:25:06;;;;;;;7.80;2.97;;;19.30;48.50;;;;;;4198421;28;20052;-65
2020/12/20 11:27:27;;;;;;;5.10;2.90;;;19.30;48.60;;;;;;4197902;28;20054;-65
2020/12/20 11:29:53;;;;;;;7.28;3.40;;;19.30;48.60;;;;;;4198526;28;20868;-65
2020/12/20 11:32:15;;;;;;;7.78;2.55;;;19.30;48.60;;;;;;4198878;28;20145;-65
2020/12/20 11:34:36;;;;;;;5.40;2.63;;;19.30;48.60;;;;;;4198738;28;20506;-65
2020/12/20 11:36:59;;;;;;;5.63;2.67;;;19.30;48.60;;;;;;4188478;28;20558;-66
2020/12/20 11:39:22;;;;;;;5.03;2.60;;;19.20;49.20;;;;;;4197243;28;20059;-65
2020/12/20 11:41:45;;;;;;;5.28;2.45;;;19.30;48.80;;;;;;4193872;28;20110;-65
2020/12/20 11:44:07;;;;;;;4.00;2.20;;;19.30;48.80;;;;;;4194643;28;20090;-65
2020/12/20 11:46:28;;;;;;;5.07;2.15;;;19.30;48.90;;;;;;4194281;28;20098;-64
2020/12/20 11:48:48;;;;;;;6.70;2.50;;;19.30;49.00;;;;;;4194852;28;20055;-62
2020/12/20 11:51:11;;;;;;;4.40;2.53;;;19.30;48.90;;;;;;4197570;28;20083;-68
2020/12/20 11:53:32;;;;;;;8.48;2.10;;;19.30;49.10;;;;;;4196981;28;20064;-67
2020/12/20 11:55:53;;;;;;;6.40;1.98;;;19.30;49.10;;;;;;4197894;28;20067;-67
2020/12/20 11:58:13;;;;;;;5.38;2.53;;;19.30;49.30;;;;;;4196628;28;20133;-66
2020/12/20 12:00:34;;;;;;;;;;;19.30;49.20;;;;;;4198031;28;20090;-67
2020/12/20 12:02:55;;;;;;;5.40;2.20;;;19.40;49.20;;;;;;4198290;28;20438;-67
2020/12/20 12:05:18;;;;;;;5.95;2.13;;;19.30;49.20;;;;;;4196544;28;20091;-67
2020/12/20 12:07:39;;;;;;;4.32;1.90;;;19.30;49.20;;;;;;4198306;28;20149;-67
2020/12/20 12:10:00;;;;;;;4.63;2.17;;;19.30;49.20;;;;;;4196292;28;20161;-68
2020/12/20 12:12:20;;;;;;;6.88;2.13;;;19.30;49.30;;;;;;4197366;28;20058;-66
2020/12/20 12:14:41;;;;;;;2.90;2.03;;;19.30;49.30;;;;;;4198195;28;20050;-66
2020/12/20 12:17:04;;;;;;;8.45;2.45;;;19.30;49.40;;;;;;4197121;28;20411;-66
2020/12/20 12:19:24;;;;;;;5.50;2.17;;;19.30;49.30;;;;;;4196989;28;20059;-66
2020/12/20 12:21:48;;;;;;;8.77;2.15;;;19.30;49.30;;;;;;4197123;28;20600;-66
2020/12/20 12:24:09;;;;;;;3.17;1.95;;;19.20;49.30;;;;;;4198268;28;20059;-66
2020/12/20 12:26:29;;;;;;;6.45;2.30;;;19.20;49.30;;;;;;4198026;28;20479;-66
2020/12/20 12:28:49;;;;;;;2.88;1.73;;;19.20;49.20;;;;;;4198328;28;20087;-66
2020/12/20 12:31:13;;;;;;;5.07;1.97;;;19.20;49.20;;;;;;4197352;28;20126;-66
2020/12/20 12:33:33;;;;;;;3.40;1.88;;;19.20;49.30;;;;;;4196498;28;20101;-66
2020/12/20 12:35:57;;;;;;;3.50;1.92;;;19.20;49.30;;;;;;4197284;28;20679;-66
2020/12/20 12:38:20;;;;;;;3.83;1.88;;;19.20;49.30;;;;;;4198068;28;20064;-66
2020/12/20 12:40:41;;;;;;;3.10;2.00;;;19.20;49.30;;;;;;4198078;28;20098;-66
2020/12/20 12:43:04;;;;;;;3.63;2.05;;;19.20;49.30;;;;;;4197996;28;20510;-66
2020/12/20 12:45:25;;;;;;;4.88;2.13;;;19.10;49.30;;;;;;4197964;28;20075;-66
2020/12/20 12:47:48;;;;;;;3.20;1.88;;;19.10;49.30;;;;;;4197834;28;20106;-66
2020/12/20 12:50:08;;;;;;;6.90;1.80;;;19.10;49.30;;;;;;4196831;28;20090;-66
2020/12/20 12:52:32;;;;;;;5.75;1.63;;;19.10;49.30;;;;;;4197874;28;20059;-66
2020/12/20 12:54:54;;;;;;;3.25;1.88;;;19.10;49.30;;;;;;4191119;28;20110;-64
2020/12/20 12:57:18;;;;;;;4.25;1.75;;;19.10;49.30;;;;;;4194391;28;20568;-64
2020/12/20 12:59:42;;;;;;;2.95;1.80;;;19.10;49.50;;;;;;4194563;28;20102;-66
2020/12/20 13:02:07;;;;;;;1.98;1.48;;;19.10;49.90;;;;;;4194945;28;20174;-63
2020/12/20 13:04:27;;;;;;;7.63;1.90;;;19.10;50.20;;;;;;4195603;28;20097;-64
2020/12/20 13:06:54;;;;;;;12.00;2.20;;;19.10;49.80;;;;;;4195935;28;20059;-63
2020/12/20 13:09:15;;;;;;;5.15;1.95;;;19.20;50.00;;;;;;4193782;28;20060;-66
2020/12/20 13:11:41;;;;;;;3.92;1.75;;;19.20;49.90;;;;;;4193704;28;20548;-67
2020/12/20 13:14:03;;;;;;;5.60;1.98;;;19.10;49.90;;;;;;4197051;28;20102;-67
2020/12/20 13:16:26;;;;;;;4.15;1.70;;;19.20;50.40;;;;;;4197287;28;20091;-67
2020/12/20 13:18:49;;;;;;;6.82;2.30;;;19.20;50.20;;;;;;4196707;28;20648;-66
2020/12/20 13:21:17;;;;;;;5.00;1.65;;;19.20;50.20;;;;;;4197268;28;20196;-66
2020/12/20 13:23:44;;;;;;;3.20;1.92;;;19.10;50.20;;;;;;4196169;28;20692;-67
2020/12/20 13:26:04;;;;;;;2.83;1.55;;;19.10;50.20;;;;;;4197194;28;20067;-66
2020/12/20 13:28:25;;;;;;;4.32;1.65;;;19.10;50.20;;;;;;4195739;28;20090;-66
2020/12/20 13:30:56;;;;;;;4.85;1.60;;;19.00;50.10;;;;;;4197172;28;20082;-67
2020/12/20 13:33:28;;;;;;;4.25;1.52;;;19.10;50.10;;;;;;4197208;28;20071;-67
2020/12/20 13:35:51;;;;;;;5.82;1.88;;;19.00;50.10;;;;;;4195939;28;20055;-66
2020/12/20 13:38:11;;;;;;;3.23;1.90;;;19.00;50.00;;;;;;4196113;28;20062;-68
2020/12/20 13:40:31;;;;;;;8.30;1.70;;;19.10;50.20;;;;;;4193981;28;20518;-63
2020/12/20 13:42:52;;;;;;;13.63;2.10;;;19.10;50.40;;;;;;4194160;28;20103;-63
2020/12/20 13:45:14;;;;;;;8.10;2.22;;;19.10;50.50;;;;;;4194591;28;20120;-63
2020/12/20 15:41:03;;;;;;;8.48;3.22;;;19.80;57.70;;;;;;4244967;27;20368;-67
2020/12/20 15:43:43;;;;;;;24.58;4.05;;;19.70;53.40;;;;;;4241822;28;20133;-60
2020/12/20 15:46:08;;;;;;;9.98;3.17;;;19.60;53.70;;;;;;4227291;28;20062;-64
2020/12/20 15:48:31;;;;;;;12.98;3.08;;;19.50;53.10;;;;;;4226701;28;20086;-64
2020/12/20 15:50:55;;;;;;;10.57;3.13;;;19.40;53.20;;;;;;4253237;27;20898;-65
2020/12/20 15:53:27;;;;;;;8.15;2.70;;;19.40;53.60;;;;;;4227094;28;20070;-65
2020/12/20 15:55:47;;;;;;;10.00;2.40;;;19.30;53.70;;;;;;4227017;28;20054;-65
2020/12/20 15:58:09;;;;;;;9.80;3.67;;;19.30;53.80;;;;;;4227046;28;20054;-64
2020/12/20 16:00:34;;;;;;;6.22;2.35;;;19.30;53.70;;;;;;4228074;28;20327;-67
2020/12/20 16:03:04;;;;;;;6.35;2.67;;;19.20;53.70;;;;;;4227070;28;20177;-67
2020/12/20 16:05:30;;;;;;;4.50;2.33;;;19.20;53.60;;;;;;4241367;28;20131;-67
2020/12/20 16:07:56;;;;;;;6.22;2.80;;;19.10;53.50;;;;;;4226845;28;20437;-67
2020/12/20 16:10:16;;;;;;;5.28;2.47;;;19.10;53.40;;;;;;4226889;28;20102;-67
2020/12/20 16:12:36;;;;;;;4.95;2.33;;;19.10;53.40;;;;;;4228112;28;20059;-67
2020/12/20 16:15:11;;;;;;;7.82;2.75;;;19.10;53.40;;;;;;4241060;28;20053;-67
2020/12/20 16:17:36;;;;;;;4.88;2.75;;;19.00;53.30;;;;;;4227008;28;20144;-67
2020/12/20 16:20:08;;;;;;;8.30;3.15;;;19.10;53.30;;;;;;4226219;28;20077;-67
2020/12/20 16:22:36;;;;;;;4.05;2.60;;;19.00;53.20;;;;;;4226149;28;20114;-67
2020/12/20 16:24:58;;;;;;;6.00;2.97;;;19.00;53.20;;;;;;4220506;28;20059;-66
2020/12/20 16:27:21;;;;;;;8.32;3.28;;;19.00;53.30;;;;;;4218953;28;20051;-67
2020/12/20 16:29:42;;;;;;;8.82;2.80;;;19.00;53.50;;;;;;4218179;28;20047;-66
2020/12/20 16:32:03;;;;;;;8.85;2.88;;;19.00;53.50;;;;;;4218909;28;20548;-67
2020/12/20 16:34:26;;;;;;;5.32;2.70;;;19.00;53.40;;;;;;4208942;28;20584;-67
2020/12/20 16:36:50;;;;;;;4.38;2.65;;;19.00;54.00;;;;;;4209948;28;20135;-67
2020/12/20 16:39:17;;;;;;;5.40;2.65;;;19.00;53.50;;;;;;4209215;28;20051;-67
2020/12/20 16:41:46;;;;;;;8.93;3.75;;;19.00;53.70;;;;;;4207362;28;20181;-65
2020/12/20 16:44:07;;;;;;;10.25;3.60;;;19.00;53.70;;;;;;4220956;28;20042;-63
2020/12/20 16:46:30;;;;;;;9.18;4.10;;;19.00;53.90;;;;;;4221631;28;20066;-63
2020/12/20 16:48:57;;;;;;;12.63;6.57;;;18.90;53.70;;;;;;4212212;28;20152;-64
2020/12/20 16:51:17;;;;;;;16.70;9.68;;;18.90;53.70;;;;;;4209034;28;20082;-64
2020/12/20 16:53:38;;;;;;;13.65;8.02;;;18.90;53.80;;;;;;4206816;28;20087;-64
2020/12/20 16:56:05;;;;;;;16.50;8.60;;;18.90;53.60;;;;;;4210984;28;20059;-64
2020/12/20 16:58:26;;;;;;;15.05;9.02;;;18.90;53.70;;;;;;4206117;28;20050;-64
2020/12/20 17:00:46;;;;;;;15.75;8.57;;;18.90;53.60;;;;;;4210982;28;20592;-63
2020/12/20 17:03:06;;;;;;;12.52;7.32;;;18.90;53.50;;;;;;4205018;28;20059;-67
2020/12/20 17:05:30;;;;;;;18.67;9.10;;;18.90;53.40;;;;;;4206448;28;20066;-68
2020/12/20 17:07:52;;;;;;;18.23;9.27;;;18.90;53.20;;;;;;4210864;28;20158;-64
2020/12/20 17:10:15;;;;;;;19.30;10.23;;;19.00;53.50;;;;;;4198600;28;20094;-65
2020/12/20 17:12:41;;;;;;;20.92;8.73;;;19.00;53.40;;;;;;4204054;28;20092;-65
2020/12/20 17:15:01;;;;;;;17.13;8.38;;;19.00;53.20;;;;;;4209970;28;20094;-63
2020/12/20 17:17:21;;;;;;;19.35;9.07;;;19.10;53.80;;;;;;4206553;28;20055;-63
2020/12/20 17:19:42;;;;;;;20.03;7.97;;;19.20;54.40;;;;;;4202774;28;20058;-63
2020/12/20 17:22:05;;;;;;;20.73;9.23;;;19.20;54.20;;;;;;4199719;28;20083;-63
2020/12/20 17:24:26;;;;;;;16.13;8.32;;;19.30;54.40;;;;;;4197362;28;20114;-62
2020/12/20 17:26:46;;;;;;;19.92;7.65;;;19.40;54.50;;;;;;4198143;28;20623;-66
2020/12/20 17:29:10;;;;;;;16.15;8.20;;;19.40;54.30;;;;;;4198127;28;20059;-60
2020/12/20 17:31:30;;;;;;;15.60;8.13;;;19.50;54.70;;;;;;4206150;28;20074;-62
2020/12/20 17:33:51;;;;;;;16.80;7.10;;;19.60;54.90;;;;;;4195569;28;20091;-60
2020/12/20 17:36:16;;;;;;;18.00;7.40;;;19.70;55.30;;;;;;4209749;28;20059;-61
2020/12/20 17:38:38;;;;;;;18.83;7.40;;;19.80;55.50;;;;;;4213329;28;20114;-62
2020/12/20 17:41:01;;;;;;;19.00;8.77;;;19.80;55.10;;;;;;4213837;28;20063;-61
2020/12/20 17:43:22;;;;;;;19.97;7.17;;;19.90;55.60;;;;;;4212153;28;20110;-61
2020/12/20 17:45:42;;;;;;;20.30;7.43;;;20.00;55.80;;;;;;4212775;28;20101;-71
2020/12/20 17:48:04;;;;;;;14.93;6.53;;;20.10;55.40;;;;;;4208616;28;20774;-74
2020/12/20 17:50:24;;;;;;;;;;;20.20;55.80;;;;;;4213500;28;20422;-63
2020/12/20 17:52:45;;;;;;;14.65;6.60;;;20.30;55.90;;;;;;4213931;28;19927;-67
2020/12/20 17:55:16;;;;;;;14.55;6.40;;;20.30;56.00;;;;;;4197814;28;20064;-65
2020/12/20 17:57:36;;;;;;;13.48;6.18;;;20.40;56.10;;;;;;4208600;28;20081;-61
2020/12/20 17:59:56;;;;;;;14.77;7.13;;;20.50;56.70;;;;;;4209030;28;20513;-68
2020/12/20 18:02:17;;;;;;;11.73;5.90;;;20.50;56.40;;;;;;4202781;28;20755;-66
2020/12/20 18:04:43;;;;;;;13.33;6.43;;;20.50;56.50;;;;;;4211563;28;20818;-67
2020/12/20 18:07:03;;;;;;;15.23;6.50;;;20.60;56.60;;;;;;4205808;28;20118;-66
2020/12/20 18:09:26;;;;;;;16.02;6.03;;;20.60;57.30;;;;;;4198562;28;20113;-63
2020/12/20 18:11:47;;;;;;;12.35;6.85;;;20.70;56.70;;;;;;4199501;28;20083;-65
2020/12/20 18:14:08;;;;;;;13.35;5.30;;;20.70;56.50;;;;;;4202504;28;20102;-67
2020/12/20 18:16:28;;;;;;;15.02;5.75;;;20.70;56.30;;;;;;4201041;28;20105;-67
2020/12/20 18:18:51;;;;;;;11.98;6.10;;;20.80;56.50;;;;;;4196920;28;20067;-66
2020/12/20 18:21:14;;;;;;;13.98;6.03;;;20.80;56.40;;;;;;4197426;28;20502;-65
2020/12/20 18:23:36;;;;;;;11.05;6.20;;;20.90;56.90;;;;;;4208885;28;20063;-71
2020/12/20 18:25:57;;;;;;;11.77;5.65;;;20.90;56.80;;;;;;4211345;28;20050;-80
2020/12/20 18:28:19;;;;;;;13.60;5.70;;;21.00;56.50;;;;;;4209016;28;20059;-67
2020/12/20 18:30:42;;;;;;;12.07;5.28;;;21.00;56.30;;;;;;4198650;28;20572;-65
2020/12/20 18:33:05;;;;;;;10.80;5.28;;;21.00;55.50;;;;;;4205989;28;20070;-67
2020/12/20 18:35:28;;;;;;;11.15;5.55;;;21.00;55.40;;;;;;4193780;28;20055;-70
2020/12/20 18:37:48;;;;;;;12.77;5.72;;;21.00;56.00;;;;;;4194277;28;20063;-74
2020/12/20 18:40:09;;;;;;;13.57;5.40;;;21.00;56.00;;;;;;4194613;28;20130;-72
2020/12/20 18:42:31;;;;;;;9.40;4.72;;;21.10;56.30;;;;;;4195120;28;20068;-69
2020/12/20 18:44:53;;;;;;;10.25;5.55;;;21.10;56.40;;;;;;4194235;28;20081;-73
2020/12/20 18:47:18;;;;;;;12.55;5.10;;;21.10;56.30;;;;;;4194801;28;20056;-69
2020/12/20 18:49:43;;;;;;;11.52;5.55;;;21.10;56.10;;;;;;4196584;28;20143;-68
2020/12/20 18:52:08;;;;;;;6.53;4.60;;;21.10;56.30;;;;;;4212224;28;20058;-77
2020/12/20 18:54:29;;;;;;;11.90;5.57;;;21.20;55.90;;;;;;4193850;28;20055;-65
2020/12/20 18:56:51;;;;;;;10.73;5.18;;;21.20;55.20;;;;;;4207732;28;20078;-65
2020/12/20 18:59:14;;;;;;;12.77;4.45;;;21.20;53.10;;;;;;4201227;28;20055;-62
2020/12/20 19:01:39;;;;;;;8.30;5.30;;;21.10;53.10;;;;;;4199107;28;20055;-63
2020/12/20 19:04:07;;;;;;;9.48;4.43;;;21.10;51.80;;;;;;4210756;28;20079;-62
2020/12/20 19:06:31;;;;;;;7.45;4.60;;;21.10;52.50;;;;;;4210573;28;20063;-63
2020/12/20 19:08:55;;;;;;;6.80;4.78;;;21.00;52.60;;;;;;4209884;28;20058;-63
2020/12/20 19:11:20;;;;;;;5.70;4.57;;;21.00;52.50;;;;;;4210733;28;20051;-63
2020/12/20 19:13:42;;;;;;;8.93;4.07;;;21.00;52.60;;;;;;4210046;28;20498;-63
2020/12/20 19:16:03;;;;;;;7.47;4.60;;;21.00;52.60;;;;;;4209439;28;20545;-62
2020/12/20 19:18:24;;;;;;;7.70;4.47;;;20.90;52.60;;;;;;4209332;28;20112;-62
2020/12/20 19:20:47;;;;;;;8.27;4.35;;;20.90;52.60;;;;;;4211876;28;20074;-62
2020/12/20 19:23:09;;;;;;;7.10;4.00;;;20.90;52.60;;;;;;4222921;28;20610;-62
2020/12/20 19:25:30;;;;;;;6.25;4.50;;;20.90;52.60;;;;;;4222897;28;20161;-62
2020/12/20 19:27:51;;;;;;;9.05;4.90;;;20.80;52.50;;;;;;4210034;28;20094;-62
2020/12/20 19:30:11;;;;;;;6.68;3.90;;;20.80;52.50;;;;;;4211153;28;20397;-62
2020/12/20 19:32:37;;;;;;;6.07;4.15;;;20.80;52.50;;;;;;4224601;28;20066;-62
2020/12/20 19:35:04;;;;;;;7.03;4.25;;;20.70;52.50;;;;;;4211161;28;20159;-62
2020/12/20 19:37:31;;;;;;;9.05;4.47;;;20.70;52.50;;;;;;4211498;28;20773;-62
2020/12/20 19:39:51;;;;;;;5.07;4.45;;;20.70;52.50;;;;;;4223379;28;20141;-63
2020/12/20 19:42:14;;;;;;;5.43;3.67;;;20.70;52.50;;;;;;4202654;28;20515;-62
2020/12/20 19:44:40;;;;;;;5.35;3.42;;;20.60;52.40;;;;;;4201371;28;20055;-62
2020/12/20 19:47:03;;;;;;;6.45;4.25;;;20.60;52.40;;;;;;4201134;28;20514;-64
2020/12/20 19:49:25;;;;;;;5.88;3.70;;;20.60;52.30;;;;;;4203480;28;20054;-63
2020/12/20 19:51:48;;;;;;;6.93;4.13;;;20.60;52.60;;;;;;4217160;28;20547;-62
2020/12/20 19:54:12;;;;;;;7.60;3.72;;;20.50;52.40;;;;;;4203857;28;20616;-64
2020/12/20 19:56:33;;;;;;;14.40;5.95;;;20.60;52.80;;;;;;4200395;28;20073;-70
2020/12/20 19:58:53;;;;;;;;;;;20.50;52.90;;;;;;4207020;28;20640;-67
2020/12/20 20:01:14;;;;;;;57.53;28.35;;;20.50;53.00;;;;;;4214332;28;20003;-67
2020/12/20 20:03:37;;;;;;;38.08;19.73;;;20.50;52.90;;;;;;4205065;28;20058;-65
2020/12/20 20:06:01;;;;;;;73.78;35.75;;;20.50;53.70;;;;;;4218447;28;20097;-65
2020/12/20 20:08:22;;;;;;;76.93;36.55;;;20.50;52.80;;;;;;4203207;28;20142;-65
2020/12/20 20:10:46;;;;;;;74.75;39.25;;;20.50;52.70;;;;;;4200699;28;20056;-65
2020/12/20 20:13:12;;;;;;;68.95;39.72;;;20.50;52.50;;;;;;4201724;28;20063;-65
2020/12/20 20:15:33;;;;;;;73.30;38.03;;;20.50;52.40;;;;;;4203051;28;20055;-65
2020/12/20 20:17:56;;;;;;;70.35;37.05;;;20.50;52.60;;;;;;4200228;28;20051;-64
2020/12/20 20:20:19;;;;;;;64.97;38.28;;;20.50;53.10;;;;;;4202125;28;20043;-64
2020/12/20 20:22:39;;;;;;;64.38;35.55;;;20.50;52.90;;;;;;4200325;28;20052;-65
2020/12/20 20:25:04;;;;;;;65.40;37.08;;;20.50;52.80;;;;;;4202314;28;20056;-74
2020/12/20 20:27:27;;;;;;;66.53;36.90;;;20.50;52.80;;;;;;4213673;28;20117;-72
2020/12/20 20:29:47;;;;;;;60.00;35.42;;;20.60;52.40;;;;;;4205267;28;20054;-66
2020/12/20 20:32:07;;;;;;;54.25;28.27;;;20.60;52.50;;;;;;4219153;28;20059;-62
2020/12/20 20:34:28;;;;;;;17.50;11.93;;;20.60;49.80;;;;;;4205565;28;20108;-62
